メインページ
METAR-TAF:

METAR-TAF

空港 :

プンタアレナス, チリ

緯度: 53-00S, 経度: 070-51W, 海抜: 37m

現時点の気象観測

当レポートは15分前の14:00(UTC)に作成
西/北西の風 7kt、西から北西の間で変化する
気温 11°C
湿度 47%
気圧 1000 hPa
視程10km以上
高度4300ftの雲は散在している
高度10000ftの千切れ雲あり

METAR: SCCI 201400Z 29007KT 260V320 9999 SCT043 BKN100 11/M00 Q1000 NOSIG

時間: 11:15 (14:15 UTC)

予報

当レポートは3時間37分前の10:38(UTC)に作成
予報は20日の 12時(UTC)から 21日の 12時(UTC)まで有効
西の風 15kt
視程10km以上
高度4500ftの雲はほとんどない
確率 30% :
20日の 12時(UTC)から 20日の 18時(UTC)まで一時的に
変向風 4kt
視程: 9000m
高度1500ftの雲はほとんどない
高度3500ftの千切れ雲あり
弱いにわか雨
21日の 00時(UTC)から 21日の 02時(UTC)まで徐々に
西/北西の風 17kt
高度3800ftの雲は散在している
確率 40% :
21日の 03時(UTC)から 21日の 06時(UTC)まで一時的に
北/北西の風 25kt
21日の 09時(UTC)から 21日の 12時(UTC)まで一時的に
視程: 8000m
高度2200ftの雲は散在している
高度3000ftの千切れ雲あり
弱いにわか雨

TAF: SCCI 201038Z 2012/2112 27015KT 9999 FEW045 TN04/2110Z TX15/2018Z PROB30 TEMPO 2012/2018 VRB04KT 9000 -SHRA FEW015 BKN035 BECMG 2100/2102 30017KT SCT038 PROB40 TEMPO 2103/2106 34025KT TEMPO 2109/2112 8000 -SHRA SCT022 BKN030

4,000以上の空港の気象観測と天気予報(METAR報とTAF報)

利用可能な観測所は地図上に黄色い丸と赤い丸で示す。

丸の上にカーソルを重ねると観測所名を参照できる。

次にクリックすると気象観測と天気予報を参照できる。

マップの切り替え:黒色「×」印の緑ボタンをクリックして拡大、「-」印の緑ボタンをクリックして縮小、緑色の三角印をクリックして隣りの地図に切り替え


METAR-TAF: